sensor_id;sensor_type;location;lat;lon;timestamp;pressure;altitude;pressure_sealevel;temperature;humidity
63903;BME280;50072;50.678;13.938;2023-03-16T00:00:43;100104.41;;;-2.55;97.70
63903;BME280;50072;50.678;13.938;2023-03-16T00:03:18;100109.53;;;-2.58;97.61
63903;BME280;50072;50.678;13.938;2023-03-16T00:06:03;100113.75;;;-2.64;98.00
63903;BME280;50072;50.678;13.938;2023-03-16T00:08:35;100117.09;;;-2.68;98.12
63903;BME280;50072;50.678;13.938;2023-03-16T00:11:02;100116.25;;;-2.67;97.74
63903;BME280;50072;50.678;13.938;2023-03-16T00:13:42;100113.50;;;-2.70;98.18
63903;BME280;50072;50.678;13.938;2023-03-16T00:16:10;100113.56;;;-2.68;98.71
63903;BME280;50072;50.678;13.938;2023-03-16T00:18:43;100119.28;;;-2.80;97.71
63903;BME280;50072;50.678;13.938;2023-03-16T00:21:14;100112.97;;;-2.85;97.66
63903;BME280;50072;50.678;13.938;2023-03-16T00:23:42;100113.81;;;-2.86;97.81
63903;BME280;50072;50.678;13.938;2023-03-16T00:26:14;100121.78;;;-2.83;97.22
63903;BME280;50072;50.678;13.938;2023-03-16T00:28:42;100118.00;;;-2.91;97.64
63903;BME280;50072;50.678;13.938;2023-03-16T00:31:13;100112.13;;;-2.84;97.51
63903;BME280;50072;50.678;13.938;2023-03-16T00:33:42;100118.94;;;-2.89;97.05
63903;BME280;50072;50.678;13.938;2023-03-16T00:36:15;100109.31;;;-2.90;97.35
63903;BME280;50072;50.678;13.938;2023-03-16T00:38:42;100111.81;;;-2.93;97.05
63903;BME280;50072;50.678;13.938;2023-03-16T00:41:33;100117.94;;;-2.93;97.57
63903;BME280;50072;50.678;13.938;2023-03-16T00:44:12;100122.16;;;-2.97;98.16
63903;BME280;50072;50.678;13.938;2023-03-16T00:46:42;100126.72;;;-2.91;98.44
63903;BME280;50072;50.678;13.938;2023-03-16T00:49:12;100128.47;;;-2.91;99.07
63903;BME280;50072;50.678;13.938;2023-03-16T00:51:44;100133.53;;;-2.96;99.27
63903;BME280;50072;50.678;13.938;2023-03-16T00:54:12;100123.94;;;-2.96;98.78
63903;BME280;50072;50.678;13.938;2023-03-16T00:56:38;100142.88;;;-3.03;98.93
63903;BME280;50072;50.678;13.938;2023-03-16T00:59:12;100139.44;;;-3.02;98.87
63903;BME280;50072;50.678;13.938;2023-03-16T01:01:45;100136.59;;;-3.08;98.64
63903;BME280;50072;50.678;13.938;2023-03-16T01:04:12;100140.78;;;-3.13;98.71
63903;BME280;50072;50.678;13.938;2023-03-16T01:06:42;100139.63;;;-3.20;99.04
63903;BME280;50072;50.678;13.938;2023-03-16T01:09:09;100140.66;;;-3.16;99.13
63903;BME280;50072;50.678;13.938;2023-03-16T01:11:36;100146.66;;;-3.19;99.23
63903;BME280;50072;50.678;13.938;2023-03-16T01:14:03;100142.19;;;-3.21;99.16
63903;BME280;50072;50.678;13.938;2023-03-16T01:16:33;100144.00;;;-3.20;99.33
63903;BME280;50072;50.678;13.938;2023-03-16T01:19:03;100143.13;;;-3.19;99.51
63903;BME280;50072;50.678;13.938;2023-03-16T01:21:33;100155.28;;;-3.21;99.21
63903;BME280;50072;50.678;13.938;2023-03-16T01:24:03;100158.84;;;-3.19;99.89
63903;BME280;50072;50.678;13.938;2023-03-16T01:26:42;100149.28;;;-3.19;99.95
63903;BME280;50072;50.678;13.938;2023-03-16T01:29:12;100166.69;;;-3.19;100.00
63903;BME280;50072;50.678;13.938;2023-03-16T01:31:45;100163.25;;;-3.18;100.00
63903;BME280;50072;50.678;13.938;2023-03-16T01:34:12;100158.13;;;-3.15;100.00
63903;BME280;50072;50.678;13.938;2023-03-16T01:36:43;100159.81;;;-3.17;100.00
63903;BME280;50072;50.678;13.938;2023-03-16T01:39:12;100156.38;;;-3.16;99.96
63903;BME280;50072;50.678;13.938;2023-03-16T01:41:45;100159.00;;;-3.16;99.38
63903;BME280;50072;50.678;13.938;2023-03-16T01:44:15;100156.00;;;-3.25;99.15
63903;BME280;50072;50.678;13.938;2023-03-16T01:46:42;100155.06;;;-3.27;99.28
63903;BME280;50072;50.678;13.938;2023-03-16T01:49:21;100165.59;;;-3.26;99.87
63903;BME280;50072;50.678;13.938;2023-03-16T01:52:40;100152.56;;;-3.24;99.38
63903;BME280;50072;50.678;13.938;2023-03-16T01:55:06;100156.00;;;-3.25;99.67
63903;BME280;50072;50.678;13.938;2023-03-16T01:57:38;100157.03;;;-3.22;99.55
63903;BME280;50072;50.678;13.938;2023-03-16T02:00:13;100160.47;;;-3.23;99.92
63903;BME280;50072;50.678;13.938;2023-03-16T02:03:15;100156.66;;;-3.31;99.08
63903;BME280;50072;50.678;13.938;2023-03-16T02:08:36;100162.00;;;-3.28;99.46
63903;BME280;50072;50.678;13.938;2023-03-16T02:11:06;100153.97;;;-3.33;99.23
63903;BME280;50072;50.678;13.938;2023-03-16T02:13:35;100161.00;;;-3.32;99.35
63903;BME280;50072;50.678;13.938;2023-03-16T02:16:15;100153.88;;;-3.36;100.00
63903;BME280;50072;50.678;13.938;2023-03-16T02:18:51;100161.13;;;-3.28;100.00
63903;BME280;50072;50.678;13.938;2023-03-16T02:21:57;100164.50;;;-3.31;99.86
63903;BME280;50072;50.678;13.938;2023-03-16T02:24:29;100167.91;;;-3.34;100.00
63903;BME280;50072;50.678;13.938;2023-03-16T02:30:09;100169.09;;;-3.48;100.00
63903;BME280;50072;50.678;13.938;2023-03-16T02:32:43;100168.97;;;-3.51;99.91
63903;BME280;50072;50.678;13.938;2023-03-16T02:35:13;100170.50;;;-3.56;100.00
63903;BME280;50072;50.678;13.938;2023-03-16T02:37:45;100170.16;;;-3.66;100.00
63903;BME280;50072;50.678;13.938;2023-03-16T02:40:33;100176.09;;;-3.70;100.00
63903;BME280;50072;50.678;13.938;2023-03-16T02:43:16;100187.75;;;-3.61;100.00
63903;BME280;50072;50.678;13.938;2023-03-16T02:45:50;100178.81;;;-3.67;99.53
63903;BME280;50072;50.678;13.938;2023-03-16T02:51:33;100184.97;;;-3.66;99.87
63903;BME280;50072;50.678;13.938;2023-03-16T02:54:00;100187.56;;;-3.66;99.11
63903;BME280;50072;50.678;13.938;2023-03-16T02:56:33;100175.44;;;-3.85;98.99
63903;BME280;50072;50.678;13.938;2023-03-16T02:59:00;100184.56;;;-3.75;99.25
63903;BME280;50072;50.678;13.938;2023-03-16T03:01:33;100189.75;;;-3.77;99.39
63903;BME280;50072;50.678;13.938;2023-03-16T03:04:01;100181.91;;;-3.77;99.83
63903;BME280;50072;50.678;13.938;2023-03-16T03:06:30;100189.03;;;-3.73;100.00
63903;BME280;50072;50.678;13.938;2023-03-16T03:09:05;100183.94;;;-3.70;100.00
63903;BME280;50072;50.678;13.938;2023-03-16T03:11:33;100187.25;;;-3.74;100.00
63903;BME280;50072;50.678;13.938;2023-03-16T03:14:00;100190.69;;;-3.75;100.00
63903;BME280;50072;50.678;13.938;2023-03-16T03:16:26;100188.91;;;-3.76;99.64
63903;BME280;50072;50.678;13.938;2023-03-16T03:19:03;100191.47;;;-3.77;100.00
63903;BME280;50072;50.678;13.938;2023-03-16T03:21:31;100190.84;;;-3.72;100.00
63903;BME280;50072;50.678;13.938;2023-03-16T03:24:12;100203.22;;;-3.68;100.00
63903;BME280;50072;50.678;13.938;2023-03-16T03:26:43;100190.91;;;-3.70;100.00
63903;BME280;50072;50.678;13.938;2023-03-16T03:29:12;100190.94;;;-3.69;100.00
63903;BME280;50072;50.678;13.938;2023-03-16T03:31:44;100193.63;;;-3.67;100.00
63903;BME280;50072;50.678;13.938;2023-03-16T03:34:12;100191.84;;;-3.68;100.00
63903;BME280;50072;50.678;13.938;2023-03-16T03:36:40;100199.75;;;-3.67;100.00
63903;BME280;50072;50.678;13.938;2023-03-16T03:39:12;100197.88;;;-3.69;100.00
63903;BME280;50072;50.678;13.938;2023-03-16T03:41:44;100199.25;;;-3.79;100.00
63903;BME280;50072;50.678;13.938;2023-03-16T03:44:12;100195.69;;;-3.81;98.14
63903;BME280;50072;50.678;13.938;2023-03-16T03:46:41;100196.81;;;-3.95;97.69
63903;BME280;50072;50.678;13.938;2023-03-16T03:49:13;100204.63;;;-3.97;98.61
63903;BME280;50072;50.678;13.938;2023-03-16T03:51:43;100207.09;;;-4.00;99.31
63903;BME280;50072;50.678;13.938;2023-03-16T03:54:12;100210.47;;;-4.03;99.60
63903;BME280;50072;50.678;13.938;2023-03-16T03:56:40;100211.88;;;-4.11;100.00
63903;BME280;50072;50.678;13.938;2023-03-16T03:59:12;100218.19;;;-4.06;100.00
63903;BME280;50072;50.678;13.938;2023-03-16T04:01:45;100221.56;;;-4.08;99.35
63903;BME280;50072;50.678;13.938;2023-03-16T04:04:12;100221.03;;;-4.21;99.12
63903;BME280;50072;50.678;13.938;2023-03-16T04:06:40;100221.53;;;-4.29;100.00
63903;BME280;50072;50.678;13.938;2023-03-16T04:09:12;100221.66;;;-4.26;100.00
63903;BME280;50072;50.678;13.938;2023-03-16T04:11:43;100220.84;;;-4.25;100.00
63903;BME280;50072;50.678;13.938;2023-03-16T04:14:12;100222.06;;;-4.17;100.00
63903;BME280;50072;50.678;13.938;2023-03-16T04:16:38;100225.38;;;-4.21;100.00
63903;BME280;50072;50.678;13.938;2023-03-16T04:19:12;100232.22;;;-4.23;100.00
63903;BME280;50072;50.678;13.938;2023-03-16T04:21:42;100233.09;;;-4.24;100.00
63903;BME280;50072;50.678;13.938;2023-03-16T04:24:12;100234.59;;;-4.29;99.44
63903;BME280;50072;50.678;13.938;2023-03-16T04:26:43;100231.59;;;-4.39;99.29
63903;BME280;50072;50.678;13.938;2023-03-16T04:29:13;100230.69;;;-4.39;100.00
63903;BME280;50072;50.678;13.938;2023-03-16T04:31:43;100236.94;;;-4.36;99.92
63903;BME280;50072;50.678;13.938;2023-03-16T04:34:14;100245.41;;;-4.41;99.83
63903;BME280;50072;50.678;13.938;2023-03-16T04:36:39;100243.69;;;-4.41;99.96
63903;BME280;50072;50.678;13.938;2023-03-16T04:39:12;100241.06;;;-4.41;100.00
63903;BME280;50072;50.678;13.938;2023-03-16T04:41:42;100240.88;;;-4.45;100.00
63903;BME280;50072;50.678;13.938;2023-03-16T04:44:10;100242.84;;;-4.40;100.00
63903;BME280;50072;50.678;13.938;2023-03-16T04:46:36;100236.94;;;-4.36;100.00
63903;BME280;50072;50.678;13.938;2023-03-16T04:49:03;100233.66;;;-4.31;100.00
63903;BME280;50072;50.678;13.938;2023-03-16T04:51:37;100233.78;;;-4.28;100.00
63903;BME280;50072;50.678;13.938;2023-03-16T04:54:12;100236.03;;;-4.36;100.00
63903;BME280;50072;50.678;13.938;2023-03-16T04:56:39;100235.66;;;-4.45;100.00
63903;BME280;50072;50.678;13.938;2023-03-16T04:59:06;100237.75;;;-4.56;100.00
63903;BME280;50072;50.678;13.938;2023-03-16T05:01:31;100237.22;;;-4.49;100.00
63903;BME280;50072;50.678;13.938;2023-03-16T05:03:57;100230.34;;;-4.47;100.00
63903;BME280;50072;50.678;13.938;2023-03-16T05:06:23;100228.69;;;-4.45;100.00
63903;BME280;50072;50.678;13.938;2023-03-16T05:08:49;100220.72;;;-4.48;100.00
63903;BME280;50072;50.678;13.938;2023-03-16T05:11:15;100233.22;;;-4.41;100.00
63903;BME280;50072;50.678;13.938;2023-03-16T05:13:41;100233.22;;;-4.41;100.00
63903;BME280;50072;50.678;13.938;2023-03-16T05:16:06;100234.22;;;-4.39;100.00
63903;BME280;50072;50.678;13.938;2023-03-16T05:18:32;100234.28;;;-4.37;100.00
63903;BME280;50072;50.678;13.938;2023-03-16T05:21:00;100233.41;;;-4.36;100.00
63903;BME280;50072;50.678;13.938;2023-03-16T05:23:26;100244.16;;;-4.30;100.00
63903;BME280;50072;50.678;13.938;2023-03-16T05:25:52;100256.19;;;-4.34;100.00
63903;BME280;50072;50.678;13.938;2023-03-16T05:28:18;100252.63;;;-4.36;98.99
63903;BME280;50072;50.678;13.938;2023-03-16T05:30:43;100254.94;;;-4.42;98.41
63903;BME280;50072;50.678;13.938;2023-03-16T05:33:11;100257.56;;;-4.42;98.93
63903;BME280;50072;50.678;13.938;2023-03-16T05:35:38;100257.44;;;-4.45;98.95
63903;BME280;50072;50.678;13.938;2023-03-16T05:38:04;100250.56;;;-4.43;98.96
63903;BME280;50072;50.678;13.938;2023-03-16T05:40:30;100261.03;;;-4.43;99.43
63903;BME280;50072;50.678;13.938;2023-03-16T05:42:58;100263.56;;;-4.44;99.63
63903;BME280;50072;50.678;13.938;2023-03-16T05:45:25;100255.09;;;-4.39;100.00
63903;BME280;50072;50.678;13.938;2023-03-16T05:47:52;100263.47;;;-4.26;100.00
63903;BME280;50072;50.678;13.938;2023-03-16T05:50:18;100271.03;;;-4.13;100.00
63903;BME280;50072;50.678;13.938;2023-03-16T05:52:45;100260.59;;;-4.13;99.24
63903;BME280;50072;50.678;13.938;2023-03-16T05:55:13;100259.59;;;-4.15;99.47
63903;BME280;50072;50.678;13.938;2023-03-16T05:57:40;100263.44;;;-4.07;99.38
63903;BME280;50072;50.678;13.938;2023-03-16T06:00:09;100262.81;;;-4.01;99.20
63903;BME280;50072;50.678;13.938;2023-03-16T06:02:40;100268.13;;;-4.00;98.71
63903;BME280;50072;50.678;13.938;2023-03-16T06:05:07;100263.88;;;-3.97;98.24
63903;BME280;50072;50.678;13.938;2023-03-16T06:07:34;100259.69;;;-3.92;98.89
63903;BME280;50072;50.678;13.938;2023-03-16T06:10:00;100261.56;;;-3.90;98.95
63903;BME280;50072;50.678;13.938;2023-03-16T06:12:26;100272.34;;;-3.82;99.67
63903;BME280;50072;50.678;13.938;2023-03-16T06:14:53;100261.94;;;-3.81;99.65
63903;BME280;50072;50.678;13.938;2023-03-16T06:17:21;100268.31;;;-3.74;100.00
63903;BME280;50072;50.678;13.938;2023-03-16T06:19:47;100266.81;;;-3.69;100.00
63903;BME280;50072;50.678;13.938;2023-03-16T06:22:14;100272.41;;;-3.59;100.00
63903;BME280;50072;50.678;13.938;2023-03-16T06:24:41;100274.25;;;-3.57;100.00
63903;BME280;50072;50.678;13.938;2023-03-16T06:27:09;100269.50;;;-3.46;100.00
63903;BME280;50072;50.678;13.938;2023-03-16T06:29:36;100279.63;;;-3.33;100.00
63903;BME280;50072;50.678;13.938;2023-03-16T06:32:03;100279.84;;;-3.26;100.00
63903;BME280;50072;50.678;13.938;2023-03-16T06:34:29;100282.97;;;-3.14;100.00
63903;BME280;50072;50.678;13.938;2023-03-16T06:36:56;100284.22;;;-3.04;100.00
63903;BME280;50072;50.678;13.938;2023-03-16T06:39:22;100289.91;;;-2.93;100.00
63903;BME280;50072;50.678;13.938;2023-03-16T06:41:49;100292.88;;;-2.84;100.00
63903;BME280;50072;50.678;13.938;2023-03-16T06:44:14;100296.75;;;-2.74;100.00
63903;BME280;50072;50.678;13.938;2023-03-16T06:46:41;100292.03;;;-2.61;100.00
63903;BME280;50072;50.678;13.938;2023-03-16T06:49:06;100288.09;;;-2.49;99.63
63903;BME280;50072;50.678;13.938;2023-03-16T06:51:32;100291.75;;;-2.44;99.31
63903;BME280;50072;50.678;13.938;2023-03-16T06:53:58;100297.38;;;-2.35;99.01
63903;BME280;50072;50.678;13.938;2023-03-16T06:56:24;100300.91;;;-2.33;98.33
63903;BME280;50072;50.678;13.938;2023-03-16T06:58:52;100299.69;;;-2.18;98.63
63903;BME280;50072;50.678;13.938;2023-03-16T07:01:19;100300.34;;;-2.00;98.91
63903;BME280;50072;50.678;13.938;2023-03-16T07:03:54;100300.91;;;-1.84;98.92
63903;BME280;50072;50.678;13.938;2023-03-16T07:06:40;100298.34;;;-1.57;98.50
63903;BME280;50072;50.678;13.938;2023-03-16T07:09:24;100316.47;;;-1.39;97.77
63903;BME280;50072;50.678;13.938;2023-03-16T07:11:53;100312.59;;;-1.23;97.56
63903;BME280;50072;50.678;13.938;2023-03-16T07:14:34;100310.00;;;-0.94;98.77
63903;BME280;50072;50.678;13.938;2023-03-16T07:17:03;100307.97;;;-0.76;97.33
63903;BME280;50072;50.678;13.938;2023-03-16T07:19:33;100313.44;;;-0.70;94.74
63903;BME280;50072;50.678;13.938;2023-03-16T07:22:00;100313.47;;;-0.68;94.56
63903;BME280;50072;50.678;13.938;2023-03-16T07:24:35;100310.34;;;-0.55;94.56
63903;BME280;50072;50.678;13.938;2023-03-16T07:27:03;100309.13;;;-0.37;95.56
63903;BME280;50072;50.678;13.938;2023-03-16T07:29:33;100315.03;;;-0.15;95.04
63903;BME280;50072;50.678;13.938;2023-03-16T07:32:01;100315.53;;;0.03;94.46
63903;BME280;50072;50.678;13.938;2023-03-16T07:34:42;100318.00;;;0.29;93.14
63903;BME280;50072;50.678;13.938;2023-03-16T07:37:11;100314.69;;;0.36;90.14
63903;BME280;50072;50.678;13.938;2023-03-16T07:39:41;100320.16;;;0.45;89.42
63903;BME280;50072;50.678;13.938;2023-03-16T07:42:13;100312.22;;;0.77;90.72
63903;BME280;50072;50.678;13.938;2023-03-16T07:44:42;100312.63;;;0.94;89.52
63903;BME280;50072;50.678;13.938;2023-03-16T07:47:12;100313.25;;;1.20;87.61
63903;BME280;50072;50.678;13.938;2023-03-16T07:49:42;100314.97;;;1.18;85.49
63903;BME280;50072;50.678;13.938;2023-03-16T07:52:11;100316.34;;;1.41;86.79
63903;BME280;50072;50.678;13.938;2023-03-16T07:54:41;100322.94;;;1.60;84.17
63903;BME280;50072;50.678;13.938;2023-03-16T07:57:32;100313.69;;;1.82;85.49
63903;BME280;50072;50.678;13.938;2023-03-16T08:00:04;100316.56;;;1.93;81.79
63903;BME280;50072;50.678;13.938;2023-03-16T08:02:33;100304.69;;;2.16;82.59
63903;BME280;50072;50.678;13.938;2023-03-16T08:05:12;100314.19;;;2.06;79.90
63903;BME280;50072;50.678;13.938;2023-03-16T08:07:42;100305.16;;;1.95;79.63
63903;BME280;50072;50.678;13.938;2023-03-16T08:10:10;100316.06;;;2.12;79.98
63903;BME280;50072;50.678;13.938;2023-03-16T08:12:42;100321.19;;;2.50;80.57
63903;BME280;50072;50.678;13.938;2023-03-16T08:15:14;100325.28;;;2.83;79.36
63903;BME280;50072;50.678;13.938;2023-03-16T08:17:42;100329.31;;;3.16;78.07
63903;BME280;50072;50.678;13.938;2023-03-16T08:20:15;100331.56;;;3.47;77.31
63903;BME280;50072;50.678;13.938;2023-03-16T08:22:42;100334.22;;;3.47;73.36
63903;BME280;50072;50.678;13.938;2023-03-16T08:25:13;100326.50;;;3.62;76.07
63903;BME280;50072;50.678;13.938;2023-03-16T08:27:42;100326.75;;;3.82;74.39
63903;BME280;50072;50.678;13.938;2023-03-16T08:30:11;100316.22;;;3.85;72.97
63903;BME280;50072;50.678;13.938;2023-03-16T08:32:42;100316.34;;;3.97;72.47
63903;BME280;50072;50.678;13.938;2023-03-16T08:35:13;100311.78;;;3.84;73.28
63903;BME280;50072;50.678;13.938;2023-03-16T08:37:43;100319.25;;;4.19;73.66
63903;BME280;50072;50.678;13.938;2023-03-16T08:40:15;100319.16;;;4.11;72.13
63903;BME280;50072;50.678;13.938;2023-03-16T08:43:03;100323.03;;;4.44;70.18
63903;BME280;50072;50.678;13.938;2023-03-16T08:45:33;100323.78;;;4.29;71.11
63903;BME280;50072;50.678;13.938;2023-03-16T08:48:01;100326.25;;;4.14;69.95
63903;BME280;50072;50.678;13.938;2023-03-16T08:50:45;100332.50;;;4.19;70.89
63903;BME280;50072;50.678;13.938;2023-03-16T08:53:13;100333.94;;;4.71;70.16
63903;BME280;50072;50.678;13.938;2023-03-16T08:55:42;100334.19;;;5.01;69.90
63903;BME280;50072;50.678;13.938;2023-03-16T08:58:15;100336.31;;;5.47;67.39
63903;BME280;50072;50.678;13.938;2023-03-16T09:00:44;100337.38;;;5.79;69.93
63903;BME280;50072;50.678;13.938;2023-03-16T09:03:12;100344.63;;;6.04;65.32
63903;BME280;50072;50.678;13.938;2023-03-16T09:05:42;100338.50;;;6.41;63.71
63903;BME280;50072;50.678;13.938;2023-03-16T09:08:10;100345.66;;;6.59;62.54
63903;BME280;50072;50.678;13.938;2023-03-16T09:10:37;100346.56;;;6.77;62.99
63903;BME280;50072;50.678;13.938;2023-03-16T09:13:06;100348.38;;;6.90;60.32
63903;BME280;50072;50.678;13.938;2023-03-16T09:15:33;100341.28;;;6.86;60.28
63903;BME280;50072;50.678;13.938;2023-03-16T09:18:04;100334.19;;;7.31;58.88
63903;BME280;50072;50.678;13.938;2023-03-16T09:20:34;100334.97;;;7.75;57.04
63903;BME280;50072;50.678;13.938;2023-03-16T09:23:03;100341.09;;;8.00;57.11
63903;BME280;50072;50.678;13.938;2023-03-16T09:25:39;100342.94;;;7.86;55.76
63903;BME280;50072;50.678;13.938;2023-03-16T09:28:05;100333.91;;;8.18;57.46
63903;BME280;50072;50.678;13.938;2023-03-16T09:30:33;100326.66;;;8.55;54.23
63903;BME280;50072;50.678;13.938;2023-03-16T09:33:00;100332.66;;;8.88;52.10
63903;BME280;50072;50.678;13.938;2023-03-16T09:35:33;100331.78;;;8.83;53.06
63903;BME280;50072;50.678;13.938;2023-03-16T09:38:03;100333.34;;;9.10;52.00
63903;BME280;50072;50.678;13.938;2023-03-16T09:40:36;100333.31;;;9.17;50.82
63903;BME280;50072;50.678;13.938;2023-03-16T09:46:14;100343.41;;;8.74;49.91
63903;BME280;50072;50.678;13.938;2023-03-16T09:48:46;100336.44;;;8.50;50.99
63903;BME280;50072;50.678;13.938;2023-03-16T09:51:35;100337.47;;;9.48;49.87
63903;BME280;50072;50.678;13.938;2023-03-16T09:54:12;100335.34;;;8.87;49.57
63903;BME280;50072;50.678;13.938;2023-03-16T09:56:44;100340.53;;;9.01;50.20
63903;BME280;50072;50.678;13.938;2023-03-16T09:59:14;100329.25;;;9.68;49.53
63903;BME280;50072;50.678;13.938;2023-03-16T10:02:06;100338.16;;;9.69;46.95
63903;BME280;50072;50.678;13.938;2023-03-16T10:09:55;100332.78;;;8.68;50.41
63903;BME280;50072;50.678;13.938;2023-03-16T10:12:30;100331.56;;;9.12;48.73
63903;BME280;50072;50.678;13.938;2023-03-16T10:15:05;100325.66;;;9.71;48.51
63903;BME280;50072;50.678;13.938;2023-03-16T10:18:09;100328.25;;;11.10;44.56
63903;BME280;50072;50.678;13.938;2023-03-16T10:20:39;100319.13;;;11.20;43.24
63903;BME280;50072;50.678;13.938;2023-03-16T10:23:21;100314.22;;;12.37;42.27
63903;BME280;50072;50.678;13.938;2023-03-16T10:25:53;100314.72;;;12.14;40.99
63903;BME280;50072;50.678;13.938;2023-03-16T10:28:22;100311.53;;;12.37;41.79
63903;BME280;50072;50.678;13.938;2023-03-16T10:30:51;100304.88;;;12.93;40.24
63903;BME280;50072;50.678;13.938;2023-03-16T10:33:29;100310.56;;;13.15;38.30
63903;BME280;50072;50.678;13.938;2023-03-16T10:43:54;100300.34;;;14.87;35.93
63903;BME280;50072;50.678;13.938;2023-03-16T10:46:25;100295.28;;;14.76;33.83
63903;BME280;50072;50.678;13.938;2023-03-16T10:48:58;100289.75;;;14.50;33.36
63903;BME280;50072;50.678;13.938;2023-03-16T10:51:34;100295.91;;;13.28;35.56
63903;BME280;50072;50.678;13.938;2023-03-16T10:54:35;100300.06;;;13.75;35.86
63903;BME280;50072;50.678;13.938;2023-03-16T10:57:32;100285.16;;;12.94;36.84
63903;BME280;50072;50.678;13.938;2023-03-16T11:00:16;100288.47;;;11.83;38.22
63903;BME280;50072;50.678;13.938;2023-03-16T11:03:21;100283.41;;;13.93;35.37
63903;BME280;50072;50.678;13.938;2023-03-16T11:06:02;100273.41;;;14.28;34.95
63903;BME280;50072;50.678;13.938;2023-03-16T11:08:37;100276.91;;;14.30;34.97
63903;BME280;50072;50.678;13.938;2023-03-16T11:11:16;100271.19;;;15.25;32.98
63903;BME280;50072;50.678;13.938;2023-03-16T11:13:57;100267.97;;;15.91;32.59
63903;BME280;50072;50.678;13.938;2023-03-16T11:16:41;100272.72;;;15.07;33.49
63903;BME280;50072;50.678;13.938;2023-03-16T11:22:16;100261.38;;;18.70;28.18
63903;BME280;50072;50.678;13.938;2023-03-16T11:27:55;100252.59;;;19.89;25.66
63903;BME280;50072;50.678;13.938;2023-03-16T11:33:33;100251.03;;;18.78;27.95
63903;BME280;50072;50.678;13.938;2023-03-16T11:36:31;100239.00;;;20.86;25.35
63903;BME280;50072;50.678;13.938;2023-03-16T11:39:38;100242.28;;;22.40;22.63
63903;BME280;50072;50.678;13.938;2023-03-16T11:42:28;100240.19;;;23.53;21.28
63903;BME280;50072;50.678;13.938;2023-03-16T11:45:11;100230.00;;;23.02;21.49
63903;BME280;50072;50.678;13.938;2023-03-16T11:47:48;100236.97;;;24.37;20.39
63903;BME280;50072;50.678;13.938;2023-03-16T11:58:26;100222.31;;;22.26;22.25
63903;BME280;50072;50.678;13.938;2023-03-16T12:03:46;100206.88;;;19.97;26.19
63903;BME280;50072;50.678;13.938;2023-03-16T12:06:48;100205.94;;;22.26;22.50
63903;BME280;50072;50.678;13.938;2023-03-16T12:09:45;100200.56;;;18.57;25.76
63903;BME280;50072;50.678;13.938;2023-03-16T12:12:43;100208.94;;;18.52;26.73
63903;BME280;50072;50.678;13.938;2023-03-16T12:17:50;100198.72;;;16.35;28.88
63903;BME280;50072;50.678;13.938;2023-03-16T12:20:27;100198.78;;;18.38;26.19
63903;BME280;50072;50.678;13.938;2023-03-16T12:23:07;100192.94;;;21.14;22.95
63903;BME280;50072;50.678;13.938;2023-03-16T12:25:39;100198.25;;;22.74;21.74
63903;BME280;50072;50.678;13.938;2023-03-16T12:28:26;100186.59;;;24.15;20.49
63903;BME280;50072;50.678;13.938;2023-03-16T12:44:54;100178.56;;;25.57;18.46
63903;BME280;50072;50.678;13.938;2023-03-16T12:47:36;100174.53;;;24.30;18.18
63903;BME280;50072;50.678;13.938;2023-03-16T12:50:11;100179.84;;;23.82;18.72
63903;BME280;50072;50.678;13.938;2023-03-16T12:52:40;100167.19;;;22.89;19.85
63903;BME280;50072;50.678;13.938;2023-03-16T12:55:24;100166.53;;;23.90;19.14
63903;BME280;50072;50.678;13.938;2023-03-16T12:58:03;100170.81;;;22.63;20.02
63903;BME280;50072;50.678;13.938;2023-03-16T13:00:38;100170.47;;;23.60;18.89
63903;BME280;50072;50.678;13.938;2023-03-16T13:03:13;100154.91;;;23.74;20.05
63903;BME280;50072;50.678;13.938;2023-03-16T13:05:48;100164.34;;;25.52;17.73
63903;BME280;50072;50.678;13.938;2023-03-16T13:08:17;100160.09;;;25.48;18.62
63903;BME280;50072;50.678;13.938;2023-03-16T13:11:18;100164.47;;;24.55;18.48
63903;BME280;50072;50.678;13.938;2023-03-16T13:16:34;100159.25;;;25.12;17.94
63903;BME280;50072;50.678;13.938;2023-03-16T13:19:23;100159.44;;;24.62;17.95
63903;BME280;50072;50.678;13.938;2023-03-16T13:22:05;100160.88;;;25.61;17.73
63903;BME280;50072;50.678;13.938;2023-03-16T13:24:49;100159.53;;;25.20;18.69
63903;BME280;50072;50.678;13.938;2023-03-16T13:27:32;100153.25;;;24.47;19.63
63903;BME280;50072;50.678;13.938;2023-03-16T13:30:01;100149.00;;;24.43;17.97
63903;BME280;50072;50.678;13.938;2023-03-16T13:32:42;100158.19;;;22.47;20.30
63903;BME280;50072;50.678;13.938;2023-03-16T13:35:14;100156.91;;;23.20;18.80
63903;BME280;50072;50.678;13.938;2023-03-16T13:37:42;100154.72;;;21.89;21.08
63903;BME280;50072;50.678;13.938;2023-03-16T13:40:18;100148.16;;;21.48;20.80
63903;BME280;50072;50.678;13.938;2023-03-16T13:42:48;100151.72;;;22.63;20.59
63903;BME280;50072;50.678;13.938;2023-03-16T13:45:26;100155.38;;;23.55;20.19
63903;BME280;50072;50.678;13.938;2023-03-16T13:47:54;100148.41;;;21.60;20.52
63903;BME280;50072;50.678;13.938;2023-03-16T13:50:21;100142.38;;;21.10;21.10
63903;BME280;50072;50.678;13.938;2023-03-16T13:52:56;100143.00;;;21.44;21.80
63903;BME280;50072;50.678;13.938;2023-03-16T13:55:29;100142.59;;;22.77;20.78
63903;BME280;50072;50.678;13.938;2023-03-16T13:57:56;100132.50;;;24.32;19.84
63903;BME280;50072;50.678;13.938;2023-03-16T14:00:25;100135.97;;;24.71;18.98
63903;BME280;50072;50.678;13.938;2023-03-16T14:02:55;100130.63;;;24.56;19.35
63903;BME280;50072;50.678;13.938;2023-03-16T14:05:27;100120.91;;;25.12;18.62
63903;BME280;50072;50.678;13.938;2023-03-16T14:07:55;100128.06;;;24.18;18.26
63903;BME280;50072;50.678;13.938;2023-03-16T14:10:23;100120.63;;;24.44;18.55
63903;BME280;50072;50.678;13.938;2023-03-16T14:12:52;100125.13;;;24.69;18.13